createdAt,value
2022-11-23T00:00:26.329Z,99887.91
2022-11-23T00:02:55.040Z,99895.81
2022-11-23T00:05:22.235Z,99892.38
2022-11-23T00:07:49.977Z,99893.13
2022-11-23T00:10:17.656Z,99893.22
2022-11-23T00:12:45.106Z,99898.00
2022-11-23T00:15:13.829Z,99894.88
2022-11-23T00:17:41.705Z,99897.22
2022-11-23T00:20:10.862Z,99902.81
2022-11-23T00:22:38.076Z,99908.44
2022-11-23T00:25:06.091Z,99911.53
2022-11-23T00:27:33.505Z,99915.00
2022-11-23T00:30:00.727Z,99926.13
2022-11-23T00:32:29.013Z,99933.94
2022-11-23T00:34:56.301Z,99929.25
2022-11-23T00:37:24.930Z,99930.81
2022-11-23T00:39:52.222Z,99935.47
2022-11-23T00:42:19.528Z,99938.59
2022-11-23T00:44:46.923Z,99943.75
2022-11-23T00:47:14.124Z,99952.06
2022-11-23T00:49:41.301Z,99949.56
2022-11-23T00:52:08.497Z,99956.22
2022-11-23T00:54:37.278Z,99970.03
2022-11-23T00:57:04.489Z,99967.66
2022-11-23T00:59:32.033Z,99982.25
2022-11-23T01:02:00.771Z,99986.91
2022-11-23T01:04:28.004Z,99988.91
2022-11-23T01:06:58.201Z,100006.28
2022-11-23T01:09:25.903Z,100007.06
2022-11-23T01:11:54.642Z,100007.41
2022-11-23T01:14:24.799Z,100017.09
2022-11-23T01:16:51.998Z,100023.50
2022-11-23T01:19:20.697Z,100021.41
2022-11-23T01:21:49.852Z,100028.09
2022-11-23T01:24:19.113Z,100037.16
2022-11-23T01:26:50.639Z,100032.41
2022-11-23T01:29:19.489Z,100039.06
2022-11-23T01:31:47.196Z,100037.44
2022-11-23T01:34:15.662Z,100037.44
2022-11-23T01:36:44.138Z,100032.66
2022-11-23T01:39:12.291Z,100036.66
2022-11-23T01:41:42.537Z,100033.88
2022-11-23T01:44:28.944Z,100040.63
2022-11-23T01:46:58.670Z,100031.13
2022-11-23T01:49:30.301Z,100047.72
2022-11-23T01:52:02.683Z,100048.59
2022-11-23T01:54:34.703Z,100048.59
2022-11-23T01:57:10.097Z,100049.06
2022-11-23T01:59:39.281Z,100045.63
2022-11-23T02:02:07.923Z,100050.28
2022-11-23T02:04:41.799Z,100047.00
2022-11-23T02:07:09.945Z,100046.94
2022-11-23T02:09:37.867Z,100049.25
2022-11-23T02:12:11.158Z,100043.31
2022-11-23T02:14:40.504Z,100046.00
2022-11-23T02:17:08.073Z,100049.09
2022-11-23T02:19:45.517Z,100045.47
2022-11-23T02:22:19.650Z,100044.63
2022-11-23T02:24:51.752Z,100036.34
2022-11-23T02:27:21.220Z,100042.63
2022-11-23T02:29:52.061Z,100035.03
2022-11-23T02:32:23.673Z,100033.13
2022-11-23T02:34:55.677Z,100028.38
2022-11-23T02:37:23.557Z,100030.00
2022-11-23T02:39:54.176Z,100027.69
2022-11-23T02:42:23.942Z,100040.28
2022-11-23T02:44:59.113Z,100037.88
2022-11-23T02:47:26.471Z,100033.91
2022-11-23T02:49:53.813Z,100037.00
2022-11-23T02:52:21.014Z,100040.22
2022-11-23T02:54:48.249Z,100047.41
2022-11-23T02:57:15.596Z,100037.16
2022-11-23T02:59:47.778Z,100038.75
2022-11-23T03:02:15.078Z,100046.19
2022-11-23T03:04:42.295Z,100044.19
2022-11-23T03:07:10.090Z,100048.06
2022-11-23T03:09:38.634Z,100059.84
2022-11-23T03:12:07.090Z,100062.97
2022-11-23T03:14:34.386Z,100061.31
2022-11-23T03:17:03.245Z,100062.09
2022-11-23T03:19:35.839Z,100068.41
2022-11-23T03:22:04.093Z,100070.31
2022-11-23T03:24:32.107Z,100079.41
2022-11-23T03:27:01.582Z,100084.88
2022-11-23T03:29:29.384Z,100082.09
2022-11-23T03:31:58.945Z,100083.38
2022-11-23T03:34:27.547Z,100091.25
2022-11-23T03:36:54.784Z,100086.50
2022-11-23T03:39:22.182Z,100099.13
2022-11-23T03:42:24.500Z,100105.50
2022-11-23T03:44:51.786Z,100112.63
2022-11-23T03:47:19.634Z,100115.75
2022-11-23T03:49:48.663Z,100124.41
2022-11-23T03:52:15.907Z,100143.41
2022-11-23T03:54:44.771Z,100142.53
2022-11-23T03:57:16.592Z,100155.16
2022-11-23T03:59:43.849Z,100168.59
2022-11-23T04:02:12.338Z,100176.13
2022-11-23T04:04:48.541Z,100185.44
2022-11-23T04:07:34.796Z,100200.88
2022-11-23T04:10:05.564Z,100210.72
2022-11-23T04:12:53.600Z,100221.28
2022-11-23T04:15:21.220Z,100232.72
2022-11-23T04:17:48.837Z,100239.81
2022-11-23T04:20:17.570Z,100259.91
2022-11-23T04:22:44.835Z,100261.81
2022-11-23T04:25:12.240Z,100274.97
2022-11-23T04:27:40.362Z,100280.50
2022-11-23T04:30:09.596Z,100304.56
2022-11-23T04:32:37.325Z,100313.66
2022-11-23T04:35:05.657Z,100323.06
2022-11-23T04:37:34.849Z,100338.84
2022-11-23T04:40:03.272Z,100349.50
2022-11-23T04:43:00.312Z,100362.41
2022-11-23T04:45:30.229Z,100377.44
2022-11-23T04:48:01.534Z,100379.03
2022-11-23T04:50:29.114Z,100399.59
2022-11-23T04:52:58.165Z,100403.97
2022-11-23T04:55:33.982Z,100412.25
2022-11-23T04:58:02.928Z,100428.16
2022-11-23T05:00:32.753Z,100429.66
2022-11-23T05:03:01.332Z,100445.50
2022-11-23T05:05:32.018Z,100453.31
2022-11-23T05:08:01.541Z,100468.38
2022-11-23T05:10:41.679Z,100477.09
2022-11-23T05:13:09.030Z,100500.03
2022-11-23T05:15:36.335Z,100510.25
2022-11-23T05:18:06.090Z,100529.53
2022-11-23T05:20:34.350Z,100549.78
2022-11-23T05:23:03.405Z,100565.03
2022-11-23T05:25:32.663Z,100584.09
2022-11-23T05:28:16.605Z,100599.56
2022-11-23T05:30:50.957Z,100613.84
2022-11-23T05:33:18.273Z,100623.72
2022-11-23T05:35:45.928Z,100640.53
2022-11-23T05:38:14.626Z,100661.97
2022-11-23T05:40:45.422Z,100666.38
2022-11-23T05:43:14.238Z,100681.78
2022-11-23T05:45:43.020Z,100700.69
2022-11-23T05:48:10.750Z,100710.06
2022-11-23T05:50:53.640Z,100719.81
2022-11-23T05:53:33.755Z,100731.66
2022-11-23T05:56:13.815Z,100732.59
2022-11-23T05:58:55.612Z,100739.41
2022-11-23T06:01:23.209Z,100748.38
2022-11-23T06:03:52.523Z,100763.28
2022-11-23T06:06:19.876Z,100773.53
2022-11-23T06:08:49.368Z,100778.28
2022-11-23T06:11:17.864Z,100781.31
2022-11-23T06:13:46.711Z,100784.09
2022-11-23T06:16:14.095Z,100792.28
2022-11-23T06:18:51.311Z,100796.28
2022-11-23T06:21:18.991Z,100792.13
2022-11-23T06:23:48.789Z,100787.13
2022-11-23T06:26:16.652Z,100782.00
2022-11-23T06:28:43.832Z,100789.91
2022-11-23T06:31:11.131Z,100776.78
2022-11-23T06:33:38.557Z,100768.47
2022-11-23T06:36:06.432Z,100765.25
2022-11-23T06:38:41.950Z,100760.56
2022-11-23T06:41:15.665Z,100748.69
2022-11-23T06:43:42.922Z,100738.44
2022-11-23T06:46:12.061Z,100725.66
2022-11-23T06:48:43.808Z,100718.91
2022-11-23T06:51:12.961Z,100703.97
2022-11-23T06:53:40.149Z,100696.50
2022-11-23T06:56:08.683Z,100683.53
2022-11-23T06:58:37.579Z,100672.75
2022-11-23T07:01:10.371Z,100664.88
2022-11-23T07:03:53.714Z,100667.69
2022-11-23T07:06:26.629Z,100661.34
2022-11-23T07:08:57.321Z,100655.00
2022-11-23T07:11:38.268Z,100650.69
2022-11-23T07:14:06.877Z,100653.19
2022-11-23T07:16:36.737Z,100649.19
2022-11-23T07:19:04.525Z,100646.84
2022-11-23T07:21:31.957Z,100635.91
2022-11-23T07:23:59.228Z,100632.81
2022-11-23T07:26:26.521Z,100631.38
2022-11-23T07:28:53.784Z,100625.94
2022-11-23T07:31:22.650Z,100628.34
2022-11-23T07:33:49.961Z,100631.59
2022-11-23T07:36:17.360Z,100633.22
2022-11-23T07:38:45.976Z,100646.59
2022-11-23T07:41:15.568Z,100652.00
2022-11-23T07:44:03.565Z,100648.81
2022-11-23T07:46:32.176Z,100664.56
2022-11-23T07:48:59.344Z,100671.19
2022-11-23T07:51:26.619Z,100665.69
2022-11-23T07:53:53.951Z,100666.13
2022-11-23T07:56:21.250Z,100667.75
2022-11-23T07:58:48.489Z,100657.75
2022-11-23T08:01:16.512Z,100662.00
2022-11-23T08:03:45.480Z,100656.34
2022-11-23T08:06:13.470Z,100651.91
2022-11-23T08:08:41.129Z,100635.66
2022-11-23T08:11:09.645Z,100628.47
2022-11-23T08:13:37.076Z,100624.31
2022-11-23T08:16:04.427Z,100611.66
2022-11-23T08:18:31.884Z,100603.75
2022-11-23T08:21:00.797Z,100570.50
2022-11-23T08:23:28.285Z,100555.03
2022-11-23T08:25:55.690Z,100541.16
2022-11-23T08:28:23.148Z,100521.25
2022-11-23T08:30:50.342Z,100508.53
2022-11-23T08:33:17.726Z,100488.75
2022-11-23T08:35:45.137Z,100471.38
2022-11-23T08:38:13.688Z,100450.59
2022-11-23T08:40:41.035Z,100428.78
2022-11-23T08:43:08.345Z,100408.13
2022-11-23T08:45:35.597Z,100383.91
2022-11-23T08:48:04.022Z,100364.56
2022-11-23T08:50:31.772Z,100344.28
2022-11-23T08:52:59.999Z,100316.75
2022-11-23T08:55:28.972Z,100295.00
2022-11-23T08:57:56.525Z,100272.13
2022-11-23T09:00:24.010Z,100248.31
2022-11-23T09:02:51.417Z,100231.94
2022-11-23T09:05:18.614Z,100212.66
2022-11-23T09:07:45.946Z,100201.06
2022-11-23T09:10:17.966Z,100184.72
2022-11-23T09:12:48.222Z,100168.88
2022-11-23T09:15:15.784Z,100158.38
2022-11-23T09:17:42.989Z,100154.13
2022-11-23T09:20:11.406Z,100142.06
2022-11-23T09:22:38.769Z,100136.72
2022-11-23T09:25:07.257Z,100123.75
2022-11-23T09:27:34.708Z,100108.78
2022-11-23T09:30:03.958Z,100105.69
2022-11-23T09:32:32.188Z,100099.28
2022-11-23T09:34:59.382Z,100093.50
2022-11-23T09:37:26.668Z,100075.03
2022-11-23T09:39:55.889Z,100070.03
2022-11-23T09:42:55.723Z,100058.94
2022-11-23T09:45:34.646Z,100050.56
2022-11-23T09:48:18.052Z,100043.97
2022-11-23T09:50:47.888Z,100041.88
2022-11-23T09:53:19.510Z,100024.22
2022-11-23T09:55:48.961Z,100020.56
2022-11-23T09:58:19.281Z,100007.63
2022-11-23T10:00:50.964Z,100006.50
2022-11-23T10:03:18.790Z,100001.94
2022-11-23T10:05:55.679Z,99982.47
2022-11-23T10:08:35.717Z,99982.09
2022-11-23T10:11:14.720Z,99984.47
2022-11-23T10:13:45.244Z,99983.84
2022-11-23T10:16:27.904Z,99978.72
2022-11-23T10:19:03.437Z,99973.09
2022-11-23T10:21:44.770Z,99975.88
2022-11-23T10:24:16.941Z,99960.56
2022-11-23T10:26:46.316Z,99956.66
2022-11-23T10:29:16.971Z,99961.94
2022-11-23T10:31:51.396Z,99954.69
2022-11-23T10:34:34.620Z,99947.47
2022-11-23T10:37:02.109Z,99947.91
2022-11-23T10:39:29.337Z,99948.13
2022-11-23T10:42:01.198Z,99947.72
2022-11-23T10:44:34.457Z,99944.16
2022-11-23T10:47:04.301Z,99940.06
2022-11-23T10:49:33.867Z,99938.19
2022-11-23T10:52:02.715Z,99935.28
2022-11-23T10:54:33.431Z,99938.88
2022-11-23T10:57:02.905Z,99936.97
2022-11-23T10:59:33.690Z,99938.25
2022-11-23T11:02:19.072Z,99926.22
2022-11-23T11:04:48.639Z,99920.56
2022-11-23T11:07:22.238Z,99916.69
2022-11-23T11:09:55.354Z,99920.06
2022-11-23T11:12:23.137Z,99910.97
2022-11-23T11:15:05.183Z,99919.38
2022-11-23T11:17:39.923Z,99913.03
2022-11-23T11:20:30.004Z,99914.53
2022-11-23T11:22:59.443Z,99905.88
2022-11-23T11:25:30.568Z,99910.19
2022-11-23T11:27:59.315Z,99895.28
2022-11-23T11:30:32.438Z,99904.81
2022-11-23T11:33:11.510Z,99900.53
2022-11-23T11:35:43.332Z,99907.63
2022-11-23T11:38:18.886Z,99892.94
2022-11-23T11:40:48.108Z,99905.00
2022-11-23T11:43:23.034Z,99891.38
2022-11-23T11:48:52.636Z,99892.75
2022-11-23T11:51:23.971Z,99887.78
2022-11-23T11:53:57.444Z,99878.56
2022-11-23T11:56:30.394Z,99883.66
2022-11-23T11:59:14.362Z,99870.53
2022-11-23T12:01:48.229Z,99877.34
2022-11-23T12:04:21.348Z,99873.00
2022-11-23T12:06:54.115Z,99869.78
2022-11-23T12:09:26.455Z,99865.75
2022-11-23T12:11:53.744Z,99866.81
2022-11-23T12:14:21.391Z,99864.34
2022-11-23T12:17:24.794Z,99864.19
2022-11-23T12:19:56.496Z,99871.16
2022-11-23T12:22:37.502Z,99872.81
2022-11-23T12:25:16.036Z,99874.78
2022-11-23T12:27:53.439Z,99864.72
2022-11-23T12:30:23.164Z,99857.19
2022-11-23T12:33:06.563Z,99865.25
2022-11-23T12:35:48.274Z,99869.59
2022-11-23T12:38:27.216Z,99861.84
2022-11-23T12:41:22.058Z,99860.75
2022-11-23T12:44:03.810Z,99857.19
2022-11-23T12:46:40.090Z,99852.06
2022-11-23T12:49:21.557Z,99861.97
2022-11-23T12:52:00.148Z,99856.28
2022-11-23T12:54:45.555Z,99858.72
2022-11-23T12:57:18.049Z,99848.34
2022-11-23T12:59:51.880Z,99850.78
2022-11-23T13:02:59.712Z,99852.22
2022-11-23T13:05:55.777Z,99853.00
2022-11-23T13:08:50.673Z,99854.56
2022-11-23T13:11:34.974Z,99849.56
2022-11-23T13:14:16.455Z,99853.44
2022-11-23T13:16:57.027Z,99851.63
2022-11-23T13:19:40.180Z,99858.84
2022-11-23T13:22:14.437Z,99853.97
2022-11-23T13:25:02.135Z,99859.47
2022-11-23T13:27:40.488Z,99858.41
2022-11-23T13:30:10.479Z,99859.72
2022-11-23T13:32:54.622Z,99868.63
2022-11-23T13:35:57.274Z,99867.97
2022-11-23T13:38:35.993Z,99860.16
2022-11-23T13:41:48.749Z,99851.66
2022-11-23T13:44:20.445Z,99856.78
2022-11-23T13:46:59.214Z,99858.41
2022-11-23T13:49:31.597Z,99850.03
2022-11-23T13:52:25.736Z,99853.25
2022-11-23T13:55:07.337Z,99849.69
2022-11-23T13:57:38.673Z,99855.94
2022-11-23T14:00:43.510Z,99854.13
2022-11-23T14:03:48.320Z,99849.63
2022-11-23T14:06:22.457Z,99852.63
2022-11-23T14:08:54.948Z,99854.13
2022-11-23T14:11:24.872Z,99855.72
2022-11-23T14:13:57.431Z,99848.31
2022-11-23T14:16:54.190Z,99851.22
2022-11-23T14:19:32.049Z,99840.13
2022-11-23T14:22:10.465Z,99840.38
2022-11-23T14:25:13.125Z,99841.44
2022-11-23T14:27:52.463Z,99845.56
2022-11-23T14:30:38.880Z,99847.44
2022-11-23T14:33:22.976Z,99854.47
2022-11-23T14:36:01.051Z,99859.78
2022-11-23T14:38:41.670Z,99868.28
2022-11-23T14:41:14.552Z,99869.38
2022-11-23T14:43:43.780Z,99874.91
2022-11-23T14:46:17.297Z,99859.31
2022-11-23T14:48:45.290Z,99875.72
2022-11-23T14:51:14.575Z,99860.94
2022-11-23T14:53:47.243Z,99863.88
2022-11-23T14:56:29.918Z,99865.41
2022-11-23T14:59:02.950Z,99850.81
2022-11-23T15:01:32.029Z,99845.84
2022-11-23T15:04:00.904Z,99833.59
2022-11-23T15:06:33.376Z,99834.81
2022-11-23T15:09:08.211Z,99835.56
2022-11-23T15:11:37.474Z,99827.34
2022-11-23T15:14:17.510Z,99824.84
2022-11-23T15:16:46.382Z,99830.09
2022-11-23T15:19:26.933Z,99831.34
2022-11-23T15:21:54.450Z,99826.84
2022-11-23T15:24:23.616Z,99825.72
2022-11-23T15:26:51.302Z,99821.88
2022-11-23T15:29:33.388Z,99819.19
2022-11-23T15:32:29.111Z,99814.81
2022-11-23T15:34:54.377Z,99813.53
2022-11-23T15:37:22.793Z,99807.63
2022-11-23T15:39:50.679Z,99790.56
2022-11-23T15:42:19.946Z,99791.75
2022-11-23T15:44:50.554Z,99792.78
2022-11-23T15:47:26.300Z,99785.53
2022-11-23T15:50:00.009Z,99795.13
2022-11-23T15:52:29.911Z,99792.94
2022-11-23T15:54:57.239Z,99797.03
2022-11-23T15:57:26.421Z,99799.78
2022-11-23T15:59:58.021Z,99807.31
2022-11-23T16:02:28.423Z,99824.56
2022-11-23T16:05:04.877Z,99819.25
2022-11-23T16:07:32.598Z,99827.94
2022-11-23T16:10:16.560Z,99824.56
2022-11-23T16:12:47.352Z,99825.47
2022-11-23T16:15:39.540Z,99831.03
2022-11-23T16:18:19.301Z,99837.13
2022-11-23T16:20:49.062Z,99833.72
2022-11-23T16:23:20.098Z,99825.66
2022-11-23T16:25:54.743Z,99844.97
2022-11-23T16:28:27.579Z,99845.88
2022-11-23T16:30:55.430Z,99845.97
2022-11-23T16:33:24.845Z,99852.50
2022-11-23T16:35:52.535Z,99850.19
2022-11-23T16:38:20.290Z,99857.53
2022-11-23T16:40:47.911Z,99871.31
2022-11-23T16:43:16.641Z,99875.84
2022-11-23T16:45:45.288Z,99882.84
2022-11-23T16:48:38.859Z,99887.06
2022-11-23T16:51:07.015Z,99896.19
2022-11-23T16:53:53.476Z,99903.28
2022-11-23T16:56:24.037Z,99916.50
2022-11-23T16:58:51.965Z,99920.81
2022-11-23T17:01:22.512Z,99917.28
2022-11-23T17:03:51.618Z,99922.16
2022-11-23T17:06:19.793Z,99923.03
2022-11-23T17:08:47.150Z,99928.38
2022-11-23T17:11:15.973Z,99933.13
2022-11-23T17:13:46.387Z,99933.25
2022-11-23T17:16:15.675Z,99931.03
2022-11-23T17:18:43.132Z,99935.25
2022-11-23T17:21:12.238Z,99935.25
2022-11-23T17:23:40.767Z,99944.13
2022-11-23T17:26:22.872Z,99941.53
2022-11-23T17:28:50.254Z,99948.97
2022-11-23T17:31:17.768Z,99958.63
2022-11-23T17:33:45.140Z,99962.72
2022-11-23T17:36:13.985Z,99962.72
2022-11-23T17:38:41.347Z,99957.25
2022-11-23T17:41:08.609Z,99961.81
2022-11-23T17:43:36.046Z,99959.50
2022-11-23T17:46:03.472Z,99964.38
2022-11-23T17:48:30.868Z,99964.59
2022-11-23T17:50:58.170Z,99970.22
2022-11-23T17:53:26.795Z,99973.53
2022-11-23T17:55:54.019Z,99979.28
2022-11-23T17:58:21.283Z,99978.50
2022-11-23T18:00:48.650Z,99989.91
2022-11-23T18:03:16.030Z,99986.47
2022-11-23T18:05:43.263Z,99990.69
2022-11-23T18:08:10.836Z,99989.78
2022-11-23T18:10:39.449Z,99999.97
2022-11-23T18:13:06.695Z,99987.78
2022-11-23T18:15:33.921Z,99995.22
2022-11-23T18:18:04.647Z,99993.09
2022-11-23T18:20:32.328Z,99986.19
2022-11-23T18:22:59.464Z,99994.91
2022-11-23T18:25:26.649Z,99996.66
2022-11-23T18:27:55.222Z,100003.94
2022-11-23T18:30:22.420Z,100004.38
2022-11-23T18:32:49.636Z,100009.28
2022-11-23T18:35:17.008Z,100007.94
2022-11-23T18:37:44.232Z,100007.25
2022-11-23T18:40:12.787Z,100011.31
2022-11-23T18:42:39.934Z,100012.44
2022-11-23T18:45:08.982Z,100014.44
2022-11-23T18:47:36.172Z,100020.41
2022-11-23T18:50:06.646Z,100016.16
2022-11-23T18:52:34.189Z,100021.19
2022-11-23T18:55:01.358Z,100028.03
2022-11-23T18:57:28.562Z,100028.03
2022-11-23T18:59:58.418Z,100036.34
2022-11-23T19:02:27.502Z,100036.41
2022-11-23T19:04:54.697Z,100044.19
2022-11-23T19:07:26.615Z,100050.75
2022-11-23T19:09:54.787Z,100045.47
2022-11-23T19:12:21.951Z,100047.00
2022-11-23T19:14:49.181Z,100049.38
2022-11-23T19:17:16.468Z,100044.59
2022-11-23T19:19:45.110Z,100043.72
2022-11-23T19:22:12.310Z,100043.72
2022-11-23T19:24:39.629Z,100046.81
2022-11-23T19:27:06.797Z,100042.06
2022-11-23T19:29:34.382Z,100050.28
2022-11-23T19:32:02.082Z,100049.84
2022-11-23T19:34:29.284Z,100052.63
2022-11-23T19:36:57.829Z,100049.84
2022-11-23T19:39:25.051Z,100048.97
2022-11-23T19:41:52.449Z,100046.97
2022-11-23T19:44:19.676Z,100052.97
2022-11-23T19:46:46.938Z,100056.06
2022-11-23T19:49:14.197Z,100055.28
2022-11-23T19:51:41.528Z,100056.88
2022-11-23T19:54:10.202Z,100055.72
2022-11-23T19:56:37.530Z,100063.78
2022-11-23T19:59:04.829Z,100061.91
2022-11-23T20:01:32.735Z,100056.38
2022-11-23T20:04:08.010Z,100063.88
2022-11-23T20:06:38.231Z,100070.56
2022-11-23T20:09:07.208Z,100065.00
2022-11-23T20:11:38.061Z,100066.91
2022-11-23T20:14:05.841Z,100063.25
2022-11-23T20:16:33.623Z,100069.69
2022-11-23T20:19:02.416Z,100071.13
2022-11-23T20:21:31.079Z,100075.03
2022-11-23T20:24:04.462Z,100079.69
2022-11-23T20:26:33.215Z,100083.69
2022-11-23T20:29:01.881Z,100083.25
2022-11-23T20:31:30.803Z,100077.19
2022-11-23T20:33:58.703Z,100081.09
2022-11-23T20:36:27.583Z,100088.50
2022-11-23T20:38:55.577Z,100090.16
2022-11-23T20:41:24.604Z,100095.25
2022-11-23T20:43:53.541Z,100092.16
2022-11-23T20:46:45.795Z,100099.97
2022-11-23T20:49:09.904Z,100090.78
2022-11-23T20:51:37.169Z,100095.97
2022-11-23T20:54:04.591Z,100101.59
2022-11-23T20:56:31.868Z,100106.03
2022-11-23T20:58:59.441Z,100105.34
2022-11-23T21:01:28.072Z,100103.28
2022-11-23T21:03:56.942Z,100118.84
2022-11-23T21:06:25.104Z,100120.53
2022-11-23T21:08:52.577Z,100123.72
2022-11-23T21:11:21.806Z,100134.44
2022-11-23T21:13:49.976Z,100134.09
2022-11-23T21:16:17.450Z,100140.97
2022-11-23T21:18:46.345Z,100150.47
2022-11-23T21:21:13.582Z,100152.22
2022-11-23T21:23:40.900Z,100156.53
2022-11-23T21:26:08.153Z,100163.72
2022-11-23T21:28:35.427Z,100167.69
2022-11-23T21:31:06.935Z,100176.00
2022-11-23T21:33:35.654Z,100193.91
2022-11-23T21:36:05.250Z,100199.44
2022-11-23T21:38:33.709Z,100192.78
2022-11-23T21:41:01.231Z,100209.38
2022-11-23T21:43:28.525Z,100226.34
2022-11-23T21:45:59.865Z,100235.88
2022-11-23T21:48:27.557Z,100248.44
2022-11-23T21:51:02.377Z,100253.19
2022-11-23T21:53:31.268Z,100262.72
2022-11-23T21:56:02.708Z,100278.81
2022-11-23T21:58:30.414Z,100284.00
2022-11-23T22:01:05.230Z,100300.25
2022-11-23T22:03:36.046Z,100307.75
2022-11-23T22:06:03.641Z,100319.84
2022-11-23T22:08:32.659Z,100340.91
2022-11-23T22:11:00.849Z,100338.53
2022-11-23T22:13:31.541Z,100356.72
2022-11-23T22:16:11.384Z,100372.56
2022-11-23T22:18:38.755Z,100377.31
2022-11-23T22:21:06.467Z,100390.84
2022-11-23T22:23:35.138Z,100400.69
2022-11-23T22:26:02.685Z,100414.91
2022-11-23T22:28:32.718Z,100423.50
2022-11-23T22:31:00.319Z,100425.91
2022-11-23T22:33:27.501Z,100433.78
2022-11-23T22:35:59.351Z,100442.97
2022-11-23T22:38:26.678Z,100449.19
2022-11-23T22:40:55.539Z,100448.06
2022-11-23T22:43:22.705Z,100457.16
2022-11-23T22:45:50.038Z,100463.53
2022-11-23T22:48:17.450Z,100473.44
2022-11-23T22:50:54.288Z,100479.41
2022-11-23T22:53:21.555Z,100486.56
2022-11-23T22:55:48.912Z,100494.06
2022-11-23T22:58:17.808Z,100494.50
2022-11-23T23:00:45.333Z,100498.91
2022-11-23T23:03:12.725Z,100510.06
2022-11-23T23:05:40.116Z,100519.56
2022-11-23T23:08:07.382Z,100514.88
2022-11-23T23:10:34.861Z,100529.56
2022-11-23T23:13:02.057Z,100534.72
2022-11-23T23:15:30.648Z,100551.34
2022-11-23T23:17:57.806Z,100543.84
2022-11-23T23:20:25.023Z,100558.94
2022-11-23T23:22:52.234Z,100564.53
2022-11-23T23:25:19.509Z,100567.34
2022-11-23T23:27:46.787Z,100570.13
2022-11-23T23:30:14.524Z,100578.84
2022-11-23T23:32:43.389Z,100584.81
2022-11-23T23:35:10.939Z,100582.03
2022-11-23T23:37:38.456Z,100589.88
2022-11-23T23:40:06.692Z,100598.47
2022-11-23T23:42:33.924Z,100594.88
2022-11-23T23:45:01.144Z,100600.78
2022-11-23T23:47:28.440Z,100599.59
2022-11-23T23:49:57.027Z,100604.06
2022-11-23T23:52:24.258Z,100605.69
2022-11-23T23:54:51.480Z,100587.09
2022-11-23T23:57:18.765Z,100588.38
2022-11-23T23:59:45.924Z,100588.84
